createdAt,value
2023-02-23T00:00:03.049Z,0
2023-02-23T00:05:03.083Z,0
2023-02-23T00:10:03.041Z,0
2023-02-23T00:15:03.061Z,0
2023-02-23T00:20:03.132Z,0
2023-02-23T00:25:03.312Z,0
2023-02-23T00:30:03.064Z,0
2023-02-23T00:35:03.074Z,0
2023-02-23T00:40:03.031Z,0
2023-02-23T00:45:03.492Z,0
2023-02-23T00:50:03.181Z,0
2023-02-23T00:55:03.168Z,0
2023-02-23T01:00:03.200Z,0
2023-02-23T01:05:03.266Z,0
2023-02-23T01:10:03.276Z,0
2023-02-23T01:15:03.278Z,0
2023-02-23T01:20:03.322Z,0
2023-02-23T01:25:03.263Z,0
2023-02-23T01:30:03.255Z,0
2023-02-23T01:35:03.327Z,0
2023-02-23T01:40:03.277Z,0
2023-02-23T01:45:03.248Z,0
2023-02-23T01:50:03.472Z,0
2023-02-23T01:55:03.309Z,0
2023-02-23T02:00:03.384Z,0
2023-02-23T02:05:03.261Z,0
2023-02-23T02:10:03.427Z,0
2023-02-23T02:15:03.262Z,0
2023-02-23T02:20:03.360Z,0
2023-02-23T02:25:03.387Z,0
2023-02-23T02:30:03.264Z,0
2023-02-23T02:35:03.270Z,0
2023-02-23T02:40:03.238Z,0
2023-02-23T02:45:03.204Z,0
2023-02-23T02:50:03.378Z,0
2023-02-23T02:55:03.185Z,0
2023-02-23T03:00:03.234Z,0
2023-02-23T03:05:03.219Z,0
2023-02-23T03:10:03.257Z,0
2023-02-23T03:15:03.202Z,0
2023-02-23T03:20:03.271Z,0
2023-02-23T03:25:03.222Z,0
2023-02-23T03:30:03.214Z,0
2023-02-23T03:35:03.302Z,0
2023-02-23T03:40:03.215Z,0
2023-02-23T03:45:03.198Z,0
2023-02-23T03:50:03.298Z,0
2023-02-23T03:55:03.281Z,0
2023-02-23T04:00:03.235Z,0
2023-02-23T04:05:03.251Z,0
2023-02-23T04:10:03.259Z,0
2023-02-23T04:15:03.287Z,0
2023-02-23T04:20:03.276Z,0
2023-02-23T04:25:03.326Z,0
2023-02-23T04:30:03.251Z,0
2023-02-23T04:35:03.231Z,0
2023-02-23T04:40:03.280Z,0
2023-02-23T04:45:03.243Z,0
2023-02-23T04:50:03.330Z,0
2023-02-23T04:55:03.295Z,0
2023-02-23T05:00:03.300Z,0
2023-02-23T05:05:03.376Z,0
2023-02-23T05:10:03.365Z,0
2023-02-23T05:15:03.339Z,0
2023-02-23T05:20:03.370Z,0
2023-02-23T05:25:03.424Z,0
2023-02-23T05:30:03.526Z,0
2023-02-23T05:35:03.273Z,0
2023-02-23T05:40:03.398Z,0
2023-02-23T05:45:03.347Z,0
2023-02-23T05:50:03.509Z,0
2023-02-23T05:55:03.347Z,0
2023-02-23T06:00:03.339Z,0
2023-02-23T06:05:03.380Z,0
2023-02-23T06:10:03.364Z,0
2023-02-23T06:15:03.361Z,0
2023-02-23T06:20:03.466Z,0
2023-02-23T06:25:03.501Z,0
2023-02-23T06:30:03.392Z,0
2023-02-23T06:35:03.369Z,0
2023-02-23T06:40:03.545Z,0
2023-02-23T06:45:03.389Z,0
2023-02-23T06:50:03.444Z,0
2023-02-23T06:55:03.388Z,0.0933015873015873
2023-02-23T07:00:03.377Z,0.37960846560846556
2023-02-23T07:05:03.316Z,0.3423492063492064
2023-02-23T07:10:03.396Z,0.6533121693121693
2023-02-23T07:15:03.390Z,1.403174603174603
2023-02-23T07:20:03.762Z,1.741100529100529
2023-02-23T07:25:03.715Z,0.9732698412698413
2023-02-23T07:30:03.571Z,0.5114814814814815
2023-02-23T07:35:03.589Z,0.4018412698412699
2023-02-23T07:40:03.619Z,1.199904761904762
2023-02-23T07:45:03.558Z,2.442783068783069
2023-02-23T07:50:03.695Z,4.005216931216931
2023-02-23T07:55:03.569Z,4.393851851851852
2023-02-23T08:00:03.614Z,3.4360846560846556
2023-02-23T08:05:03.589Z,3.4970899470899472
2023-02-23T08:10:03.604Z,4.640285714285715
2023-02-23T08:15:03.608Z,4.654994708994709
2023-02-23T08:20:03.638Z,4.027481481481481
2023-02-23T08:25:03.650Z,3.9475661375661377
2023-02-23T08:30:03.784Z,4.714994708994709
2023-02-23T08:35:03.606Z,6.935989417989418
2023-02-23T08:40:03.662Z,8.224518518518519
2023-02-23T08:45:03.589Z,9.112560846560847
2023-02-23T08:50:03.648Z,6.892645502645503
2023-02-23T08:55:03.650Z,3.2621587301587303
2023-02-23T09:00:03.646Z,2.5653227513227512
2023-02-23T09:05:03.643Z,2.230137566137566
2023-02-23T09:10:03.606Z,2.8183915343915347
2023-02-23T09:15:03.600Z,4.66573544973545
2023-02-23T09:20:03.724Z,6.762084656084657
2023-02-23T09:25:03.748Z,9.179661375661375
2023-02-23T09:30:03.591Z,10.607407407407408
2023-02-23T09:35:03.543Z,12.160708994708996
2023-02-23T09:40:03.562Z,14.543756613756614
2023-02-23T09:45:03.580Z,16.3658835978836
2023-02-23T09:50:03.597Z,14.214349206349208
2023-02-23T09:55:03.566Z,13.906179894179893
2023-02-23T10:00:03.552Z,12.636328042328044
2023-02-23T10:05:03.622Z,10.758582010582012
2023-02-23T10:10:03.611Z,12.581079365079365
2023-02-23T10:15:03.612Z,14.276243386243387
2023-02-23T10:20:03.586Z,13.12325925925926
2023-02-23T10:25:03.613Z,14.004391534391534
2023-02-23T10:30:03.698Z,10.339259259259261
2023-02-23T10:35:03.569Z,8.750010582010582
2023-02-23T10:40:03.531Z,8.223883597883598
2023-02-23T10:45:03.660Z,7.746613756613757
2023-02-23T10:50:03.657Z,6.868804232804232
2023-02-23T10:55:03.647Z,7.216095238095238
2023-02-23T11:00:03.600Z,6.213566137566138
2023-02-23T11:05:03.652Z,7.1734708994709
2023-02-23T11:10:03.664Z,8.208656084656084
2023-02-23T11:15:03.600Z,4.987809523809524
2023-02-23T11:20:03.695Z,3.9932592592592595
2023-02-23T11:25:03.623Z,3.660592592592592
2023-02-23T11:30:03.623Z,3.5788571428571427
2023-02-23T11:35:03.622Z,3.9736296296296296
2023-02-23T11:40:03.631Z,4.4767089947089955
2023-02-23T11:45:03.587Z,4.536465608465609
2023-02-23T11:50:03.719Z,3.446708994708995
2023-02-23T11:55:03.824Z,3.284677248677249
2023-02-23T12:00:03.684Z,2.9311322751322755
2023-02-23T12:05:03.686Z,2.2420317460317465
2023-02-23T12:10:03.663Z,1.9027089947089948
2023-02-23T12:15:03.634Z,2.2364867724867725
2023-02-23T12:20:03.680Z,2.5074603174603176
2023-02-23T12:25:03.618Z,2.336698412698413
2023-02-23T12:30:03.718Z,2.1343492063492064
2023-02-23T12:35:03.606Z,1.681068783068783
2023-02-23T12:40:03.690Z,0.992010582010582
2023-02-23T12:45:03.747Z,0.8128888888888889
2023-02-23T12:50:03.754Z,0.6710158730158731
2023-02-23T12:55:03.795Z,0.6850687830687832
2023-02-23T13:00:03.714Z,1.0673015873015872
2023-02-23T13:05:04.872Z,1.6310582010582009
2023-02-23T13:10:03.726Z,1.9956190476190478
2023-02-23T13:15:03.825Z,2.892021164021164
2023-02-23T13:20:03.774Z,1.7215661375661377
2023-02-23T13:25:05.163Z,1.7021904761904763
2023-02-23T13:30:03.771Z,1.3933968253968256
2023-02-23T13:35:03.837Z,1.3844338624338626
2023-02-23T13:40:03.744Z,0.9624021164021165
2023-02-23T13:45:03.739Z,1.1149417989417991
2023-02-23T13:50:03.789Z,0.7474285714285714
2023-02-23T13:55:04.112Z,0.7064232804232805
2023-02-23T14:00:03.760Z,0.5763492063492064
2023-02-23T14:05:03.844Z,0.5218306878306879
2023-02-23T14:10:03.793Z,0.4824232804232804
2023-02-23T14:15:03.732Z,0.40987301587301594
2023-02-23T14:20:06.238Z,0.5066349206349207
2023-02-23T14:25:04.157Z,0.422031746031746
2023-02-23T14:30:03.972Z,0.5734497354497355
2023-02-23T14:35:03.724Z,1.0358412698412698
2023-02-23T14:40:03.727Z,0.6285502645502646
2023-02-23T14:45:03.732Z,0.4868677248677249
2023-02-23T14:50:03.810Z,0.40050793650793653
2023-02-23T14:55:03.770Z,0.45655026455026454
2023-02-23T15:00:04.014Z,0.3492698412698413
2023-02-23T15:05:03.759Z,0.4043068783068783
2023-02-23T15:10:03.929Z,0.2923280423280423
2023-02-23T15:15:04.262Z,0.31136507936507934
2023-02-23T15:20:15.099Z,0.13834920634920633
2023-02-23T15:25:04.049Z,0
2023-02-23T15:30:03.962Z,0
2023-02-23T15:35:03.954Z,0
2023-02-23T15:40:03.938Z,0
2023-02-23T15:45:03.943Z,0
2023-02-23T15:50:04.003Z,0
2023-02-23T15:55:03.946Z,0
2023-02-23T16:00:03.993Z,0
2023-02-23T16:05:04.025Z,0
2023-02-23T16:10:04.010Z,0
2023-02-23T16:15:03.992Z,0
2023-02-23T16:20:03.951Z,0
2023-02-23T16:25:03.983Z,0
2023-02-23T16:30:04.000Z,0
2023-02-23T16:35:03.959Z,0
2023-02-23T16:40:03.932Z,0
2023-02-23T16:45:03.999Z,0
2023-02-23T16:50:13.790Z,0
2023-02-23T16:55:04.029Z,0
2023-02-23T17:00:04.144Z,0
2023-02-23T17:05:04.084Z,0
2023-02-23T17:10:04.052Z,0
2023-02-23T17:15:03.995Z,0
2023-02-23T17:20:04.244Z,0
2023-02-23T17:25:04.101Z,0
2023-02-23T17:30:04.031Z,0
2023-02-23T17:35:04.071Z,0
2023-02-23T17:40:04.067Z,0
2023-02-23T17:45:04.049Z,0
2023-02-23T17:50:04.083Z,0
2023-02-23T17:55:04.086Z,0
2023-02-23T18:00:04.081Z,0
2023-02-23T18:05:04.026Z,0
2023-02-23T18:10:04.077Z,0
2023-02-23T18:15:04.037Z,0
2023-02-23T18:20:04.148Z,0
2023-02-23T18:25:04.132Z,0
2023-02-23T18:30:04.069Z,0
2023-02-23T18:35:04.033Z,0
2023-02-23T18:40:04.049Z,0
2023-02-23T18:45:04.316Z,0
2023-02-23T18:50:04.160Z,0
2023-02-23T18:55:04.039Z,0
2023-02-23T19:00:04.073Z,0
2023-02-23T19:05:04.110Z,0
2023-02-23T19:10:04.062Z,0
2023-02-23T19:15:04.062Z,0
2023-02-23T19:20:04.150Z,0
2023-02-23T19:25:04.092Z,0
2023-02-23T19:30:04.132Z,0
2023-02-23T19:35:04.011Z,0
2023-02-23T19:40:04.075Z,0
2023-02-23T19:45:04.097Z,0
2023-02-23T19:50:04.080Z,0
2023-02-23T19:55:04.039Z,0
2023-02-23T20:00:04.053Z,0
2023-02-23T20:05:04.154Z,0
2023-02-23T20:10:04.039Z,0
2023-02-23T20:15:04.046Z,0
2023-02-23T20:20:04.073Z,0
2023-02-23T20:25:04.092Z,0
2023-02-23T20:30:04.029Z,0
2023-02-23T20:35:03.999Z,0
2023-02-23T20:40:04.100Z,0
2023-02-23T20:45:04.056Z,0
2023-02-23T20:50:04.096Z,0
2023-02-23T20:55:04.060Z,0
2023-02-23T21:00:04.083Z,0
2023-02-23T21:05:04.083Z,0
2023-02-23T21:10:04.158Z,0
2023-02-23T21:15:04.072Z,0
2023-02-23T21:20:04.144Z,0
2023-02-23T21:25:04.119Z,0
2023-02-23T21:30:05.562Z,0
2023-02-23T21:35:04.136Z,0
2023-02-23T21:40:04.111Z,0
2023-02-23T21:45:04.129Z,0
2023-02-23T21:50:04.180Z,0
2023-02-23T21:55:07.753Z,0
2023-02-23T22:00:04.126Z,0
2023-02-23T22:05:04.137Z,0
2023-02-23T22:10:04.156Z,0
2023-02-23T22:15:04.096Z,0
2023-02-23T22:20:04.184Z,0
2023-02-23T22:25:04.221Z,0
2023-02-23T22:30:04.144Z,0
2023-02-23T22:35:04.157Z,0
2023-02-23T22:40:04.256Z,0
2023-02-23T22:45:04.169Z,0
2023-02-23T22:50:04.213Z,0
2023-02-23T22:55:04.096Z,0
2023-02-23T23:00:04.190Z,0
2023-02-23T23:05:04.201Z,0
2023-02-23T23:10:04.346Z,0
2023-02-23T23:15:04.336Z,0
2023-02-23T23:20:04.337Z,0
2023-02-23T23:25:04.395Z,0
2023-02-23T23:30:04.311Z,0
2023-02-23T23:35:04.333Z,0
2023-02-23T23:40:04.280Z,0
2023-02-23T23:45:04.441Z,0
2023-02-23T23:50:04.384Z,0
2023-02-23T23:55:04.333Z,0
